createdAt,value
2022-10-31T00:01:09.848Z,97.92
2022-10-31T00:03:36.146Z,98.14
2022-10-31T00:06:02.693Z,98.00
2022-10-31T00:08:29.319Z,97.66
2022-10-31T00:10:55.719Z,98.50
2022-10-31T00:15:53.410Z,98.78
2022-10-31T00:18:19.909Z,98.37
2022-10-31T00:20:46.488Z,98.18
2022-10-31T00:23:12.940Z,98.57
2022-10-31T00:25:40.506Z,98.54
2022-10-31T00:28:09.926Z,98.89
2022-10-31T00:30:36.441Z,99.65
2022-10-31T00:33:06.136Z,99.44
2022-10-31T00:35:33.370Z,99.09
2022-10-31T00:37:59.909Z,100.00
2022-10-31T00:40:26.326Z,99.42
2022-10-31T00:42:52.747Z,99.42
2022-10-31T00:45:19.612Z,99.73
2022-10-31T00:47:46.014Z,99.98
2022-10-31T00:50:12.459Z,99.65
2022-10-31T00:52:38.877Z,100.00
2022-10-31T00:55:05.357Z,99.48
2022-10-31T00:57:31.801Z,99.45
2022-10-31T00:59:58.204Z,98.42
2022-10-31T01:02:24.764Z,99.29
2022-10-31T01:04:51.256Z,98.51
2022-10-31T01:07:17.669Z,98.82
2022-10-31T01:09:44.093Z,98.46
2022-10-31T01:12:10.550Z,98.39
2022-10-31T01:14:37.199Z,98.46
2022-10-31T01:17:03.785Z,98.76
2022-10-31T01:19:30.259Z,100.00
2022-10-31T01:21:56.714Z,100.00
2022-10-31T01:24:23.471Z,100.00
2022-10-31T01:26:49.954Z,100.00
2022-10-31T01:29:16.397Z,100.00
2022-10-31T01:31:42.878Z,100.00
2022-10-31T01:34:14.109Z,100.00
2022-10-31T01:36:40.726Z,100.00
2022-10-31T01:39:10.643Z,100.00
2022-10-31T01:41:41.453Z,100.00
2022-10-31T01:44:16.894Z,100.00
2022-10-31T01:46:49.572Z,100.00
2022-10-31T01:49:29.942Z,100.00
2022-10-31T01:52:01.456Z,100.00
2022-10-31T01:54:35.760Z,100.00
2022-10-31T01:57:03.879Z,100.00
2022-10-31T01:59:34.127Z,100.00
2022-10-31T02:02:00.710Z,100.00
2022-10-31T02:04:27.747Z,100.00
2022-10-31T02:07:06.006Z,100.00
2022-10-31T02:09:33.782Z,100.00
2022-10-31T02:12:01.058Z,100.00
2022-10-31T02:14:30.366Z,100.00
2022-10-31T02:16:57.602Z,100.00
2022-10-31T02:20:17.042Z,100.00
2022-10-31T02:22:55.342Z,100.00
2022-10-31T02:25:43.546Z,100.00
2022-10-31T02:28:31.701Z,100.00
2022-10-31T02:31:23.156Z,100.00
2022-10-31T02:33:54.263Z,100.00
2022-10-31T02:36:39.336Z,100.00
2022-10-31T02:39:25.370Z,100.00
2022-10-31T02:42:14.876Z,100.00
2022-10-31T02:45:06.846Z,100.00
2022-10-31T02:47:38.846Z,100.00
2022-10-31T02:50:11.162Z,100.00
2022-10-31T02:52:37.804Z,100.00
2022-10-31T02:55:11.250Z,100.00
2022-10-31T02:57:40.362Z,100.00
2022-10-31T03:00:09.280Z,100.00
2022-10-31T03:02:58.889Z,100.00
2022-10-31T03:06:03.039Z,100.00
2022-10-31T03:08:43.680Z,100.00
2022-10-31T03:11:10.838Z,100.00
2022-10-31T03:14:07.013Z,100.00
2022-10-31T03:17:00.372Z,100.00
2022-10-31T03:19:40.040Z,100.00
2022-10-31T03:22:16.321Z,100.00
2022-10-31T03:24:43.548Z,100.00
2022-10-31T03:27:14.626Z,100.00
2022-10-31T03:29:43.425Z,100.00
2022-10-31T03:32:20.679Z,100.00
2022-10-31T03:34:49.124Z,100.00
2022-10-31T03:37:19.130Z,100.00
2022-10-31T03:39:48.203Z,100.00
2022-10-31T03:42:24.437Z,100.00
2022-10-31T03:45:14.058Z,100.00
2022-10-31T03:47:41.955Z,100.00
2022-10-31T03:50:10.210Z,100.00
2022-10-31T03:52:51.360Z,100.00
2022-10-31T03:55:21.472Z,100.00
2022-10-31T03:57:57.256Z,100.00
2022-10-31T04:00:24.398Z,100.00
2022-10-31T04:03:09.665Z,100.00
2022-10-31T04:05:38.016Z,100.00
2022-10-31T04:08:12.237Z,100.00
2022-10-31T04:10:39.758Z,100.00
2022-10-31T04:13:11.353Z,100.00
2022-10-31T04:15:39.265Z,100.00
2022-10-31T04:18:06.542Z,100.00
2022-10-31T04:20:36.036Z,100.00
2022-10-31T04:23:03.977Z,100.00
2022-10-31T04:25:30.632Z,100.00
2022-10-31T04:27:57.423Z,100.00
2022-10-31T04:30:24.132Z,100.00
2022-10-31T04:32:50.521Z,100.00
2022-10-31T04:35:17.167Z,100.00
2022-10-31T04:37:43.609Z,100.00
2022-10-31T04:40:10.673Z,100.00
2022-10-31T04:42:37.135Z,100.00
2022-10-31T04:45:03.808Z,100.00
2022-10-31T04:47:33.212Z,100.00
2022-10-31T04:49:59.756Z,100.00
2022-10-31T04:52:26.299Z,100.00
2022-10-31T04:54:52.685Z,100.00
2022-10-31T04:57:19.161Z,100.00
2022-10-31T04:59:45.567Z,100.00
2022-10-31T05:02:12.136Z,100.00
2022-10-31T05:04:38.749Z,100.00
2022-10-31T05:07:05.171Z,100.00
2022-10-31T05:09:31.555Z,100.00
2022-10-31T05:11:58.037Z,100.00
2022-10-31T05:14:24.513Z,100.00
2022-10-31T05:16:50.933Z,100.00
2022-10-31T05:19:17.316Z,100.00
2022-10-31T05:21:43.791Z,100.00
2022-10-31T05:24:10.308Z,100.00
2022-10-31T05:26:36.744Z,100.00
2022-10-31T05:29:03.219Z,100.00
2022-10-31T05:31:29.624Z,100.00
2022-10-31T05:33:56.005Z,100.00
2022-10-31T05:36:22.398Z,100.00
2022-10-31T05:38:48.784Z,100.00
2022-10-31T05:41:15.279Z,100.00
2022-10-31T05:43:41.677Z,100.00
2022-10-31T05:46:08.113Z,100.00
2022-10-31T05:48:34.525Z,100.00
2022-10-31T05:51:00.931Z,100.00
2022-10-31T05:53:27.324Z,100.00
2022-10-31T05:55:53.719Z,100.00
2022-10-31T05:58:20.115Z,100.00
2022-10-31T06:00:46.523Z,100.00
2022-10-31T06:03:12.957Z,100.00
2022-10-31T06:05:39.396Z,100.00
2022-10-31T06:08:06.214Z,100.00
2022-10-31T06:10:32.614Z,100.00
2022-10-31T06:12:59.180Z,100.00
2022-10-31T06:15:25.709Z,100.00
2022-10-31T06:17:59.962Z,100.00
2022-10-31T06:20:26.727Z,100.00
2022-10-31T06:22:53.227Z,100.00
2022-10-31T06:25:19.649Z,100.00
2022-10-31T06:27:46.050Z,100.00
2022-10-31T06:30:12.965Z,100.00
2022-10-31T06:32:39.383Z,100.00
2022-10-31T06:35:06.233Z,100.00
2022-10-31T06:37:32.638Z,100.00
2022-10-31T06:39:59.050Z,100.00
2022-10-31T06:42:25.470Z,100.00
2022-10-31T06:44:51.866Z,100.00
2022-10-31T06:47:18.253Z,100.00
2022-10-31T06:49:44.660Z,100.00
2022-10-31T06:52:11.916Z,100.00
2022-10-31T06:54:38.351Z,100.00
2022-10-31T06:57:04.726Z,100.00
2022-10-31T06:59:31.138Z,100.00
2022-10-31T07:01:59.152Z,100.00
2022-10-31T07:04:25.678Z,100.00
2022-10-31T07:06:53.629Z,100.00
2022-10-31T07:09:20.365Z,100.00
2022-10-31T07:11:46.753Z,100.00
2022-10-31T07:14:13.241Z,100.00
2022-10-31T07:16:39.626Z,100.00
2022-10-31T07:19:06.031Z,100.00
2022-10-31T07:21:32.467Z,100.00
2022-10-31T07:23:58.843Z,100.00
2022-10-31T07:26:25.286Z,100.00
2022-10-31T07:28:51.717Z,100.00
2022-10-31T07:31:18.109Z,100.00
2022-10-31T07:33:44.553Z,100.00
2022-10-31T07:36:10.947Z,99.43
2022-10-31T07:38:37.437Z,99.31
2022-10-31T07:41:04.044Z,99.45
2022-10-31T07:43:30.518Z,99.89
2022-10-31T07:45:57.074Z,98.26
2022-10-31T07:48:23.527Z,97.50
2022-10-31T07:50:50.057Z,97.81
2022-10-31T07:53:16.787Z,97.55
2022-10-31T07:55:44.168Z,97.60
2022-10-31T07:58:12.928Z,97.93
2022-10-31T08:00:41.839Z,97.91
2022-10-31T08:03:10.921Z,97.55
2022-10-31T08:05:37.713Z,97.01
2022-10-31T08:08:05.348Z,97.08
2022-10-31T08:10:32.813Z,96.25
2022-10-31T08:13:05.299Z,95.48
2022-10-31T08:15:32.165Z,95.86
2022-10-31T08:17:59.231Z,95.97
2022-10-31T08:20:25.905Z,95.46
2022-10-31T08:23:00.437Z,95.66
2022-10-31T08:25:30.933Z,95.30
2022-10-31T08:28:00.651Z,95.34
2022-10-31T08:30:30.588Z,94.95
2022-10-31T08:33:18.295Z,94.55
2022-10-31T08:35:45.089Z,94.57
2022-10-31T08:38:13.092Z,95.08
2022-10-31T08:40:39.659Z,95.83
2022-10-31T08:43:16.748Z,95.83
2022-10-31T08:45:44.559Z,95.70
2022-10-31T08:48:14.390Z,95.14
2022-10-31T08:50:41.387Z,94.92
2022-10-31T08:53:13.204Z,94.36
2022-10-31T08:55:40.930Z,94.35
2022-10-31T08:58:10.544Z,94.67
2022-10-31T09:00:37.479Z,94.20
2022-10-31T09:03:12.984Z,93.46
2022-10-31T09:05:40.265Z,92.43
2022-10-31T09:08:11.691Z,91.67
2022-10-31T09:10:42.015Z,90.89
2022-10-31T09:13:11.969Z,89.71
2022-10-31T09:15:40.689Z,88.45
2022-10-31T09:18:08.598Z,86.69
2022-10-31T09:20:36.866Z,84.43
2022-10-31T09:23:15.366Z,83.54
2022-10-31T09:25:45.076Z,82.83
2022-10-31T09:28:17.740Z,83.68
2022-10-31T09:30:50.419Z,83.54
2022-10-31T09:33:17.682Z,84.57
2022-10-31T09:35:44.570Z,84.28
2022-10-31T09:38:16.369Z,84.11
2022-10-31T09:41:05.846Z,84.13
2022-10-31T09:43:53.505Z,84.47
2022-10-31T09:46:44.987Z,85.34
2022-10-31T09:49:42.733Z,85.16
2022-10-31T09:52:23.025Z,86.14
2022-10-31T09:55:05.906Z,86.65
2022-10-31T09:57:35.799Z,86.83
2022-10-31T10:00:05.588Z,87.53
2022-10-31T10:02:35.824Z,87.57
2022-10-31T10:05:06.323Z,87.19
2022-10-31T10:07:50.448Z,87.34
2022-10-31T10:10:20.055Z,86.99
2022-10-31T10:12:52.377Z,86.28
2022-10-31T10:15:31.158Z,84.84
2022-10-31T10:18:03.325Z,83.15
2022-10-31T10:20:47.489Z,76.95
2022-10-31T10:23:35.559Z,71.42
2022-10-31T10:26:18.192Z,71.40
2022-10-31T10:28:49.601Z,70.53
2022-10-31T10:31:19.555Z,70.46
2022-10-31T10:33:59.631Z,69.71
2022-10-31T10:36:35.664Z,69.06
2022-10-31T10:39:09.824Z,68.77
2022-10-31T10:41:37.429Z,68.38
2022-10-31T10:44:09.735Z,68.83
2022-10-31T10:47:02.389Z,66.28
2022-10-31T10:49:51.485Z,63.69
2022-10-31T10:52:43.190Z,61.86
2022-10-31T10:55:28.605Z,59.32
2022-10-31T10:58:11.442Z,56.91
2022-10-31T11:00:50.829Z,55.81
2022-10-31T11:03:18.861Z,57.56
2022-10-31T11:05:50.989Z,59.00
2022-10-31T11:08:37.199Z,60.91
2022-10-31T11:11:08.322Z,62.62
2022-10-31T11:13:36.657Z,62.05
2022-10-31T11:16:28.936Z,59.29
2022-10-31T11:19:08.466Z,57.49
2022-10-31T11:21:35.670Z,56.34
2022-10-31T11:24:14.598Z,56.87
2022-10-31T11:26:43.484Z,54.98
2022-10-31T11:29:25.839Z,54.96
2022-10-31T11:32:01.628Z,55.22
2022-10-31T11:34:34.379Z,53.35
2022-10-31T11:37:17.996Z,53.46
2022-10-31T11:39:47.150Z,52.79
2022-10-31T11:42:14.123Z,52.39
2022-10-31T11:44:44.418Z,51.72
2022-10-31T11:47:15.705Z,52.24
2022-10-31T11:49:44.814Z,53.46
2022-10-31T11:52:20.662Z,53.40
2022-10-31T11:54:58.180Z,53.84
2022-10-31T11:57:33.227Z,52.13
2022-10-31T12:00:01.615Z,51.37
2022-10-31T12:02:28.541Z,52.74
2022-10-31T12:05:10.458Z,51.70
2022-10-31T12:07:36.874Z,50.60
2022-10-31T12:10:11.753Z,50.61
2022-10-31T12:12:44.488Z,50.09
2022-10-31T12:15:30.256Z,49.54
2022-10-31T12:18:13.966Z,48.79
2022-10-31T12:21:11.599Z,49.24
2022-10-31T12:24:10.752Z,47.96
2022-10-31T12:26:51.624Z,48.40
2022-10-31T12:29:43.054Z,47.40
2022-10-31T12:32:37.534Z,46.70
2022-10-31T12:35:25.833Z,46.16
2022-10-31T12:38:10.570Z,46.29
2022-10-31T12:40:53.023Z,46.45
2022-10-31T12:43:53.531Z,48.01
2022-10-31T12:46:30.299Z,49.71
2022-10-31T12:49:25.441Z,51.89
2022-10-31T12:52:22.012Z,53.66
2022-10-31T12:54:48.411Z,55.43
2022-10-31T12:57:40.810Z,55.41
2022-10-31T13:00:20.302Z,54.85
2022-10-31T13:02:52.717Z,55.44
2022-10-31T13:05:25.154Z,55.48
2022-10-31T13:08:15.921Z,54.66
2022-10-31T13:11:11.254Z,54.21
2022-10-31T13:13:52.690Z,53.73
2022-10-31T13:16:30.545Z,53.23
2022-10-31T13:19:12.914Z,53.84
2022-10-31T13:21:54.663Z,53.53
2022-10-31T13:24:26.319Z,54.89
2022-10-31T13:26:59.478Z,55.61
2022-10-31T13:29:37.885Z,56.40
2022-10-31T13:32:08.359Z,56.67
2022-10-31T13:34:42.235Z,57.83
2022-10-31T13:37:40.666Z,57.64
2022-10-31T13:40:19.656Z,58.24
2022-10-31T13:43:03.555Z,58.85
2022-10-31T13:45:30.126Z,59.25
2022-10-31T13:48:30.498Z,59.49
2022-10-31T13:51:03.146Z,59.39
2022-10-31T13:53:58.970Z,58.49
2022-10-31T13:56:32.445Z,58.02
2022-10-31T13:59:15.997Z,56.79
2022-10-31T14:01:51.866Z,57.63
2022-10-31T14:04:25.917Z,56.58
2022-10-31T14:07:05.661Z,56.25
2022-10-31T14:09:36.573Z,56.72
2022-10-31T14:12:39.866Z,56.56
2022-10-31T14:15:15.052Z,57.68
2022-10-31T14:17:49.597Z,58.18
2022-10-31T14:20:15.939Z,58.62
2022-10-31T14:22:43.217Z,58.73
2022-10-31T14:25:34.353Z,58.88
2022-10-31T14:28:04.833Z,59.30
2022-10-31T14:30:31.760Z,59.61
2022-10-31T14:33:10.106Z,59.54
2022-10-31T14:35:54.679Z,59.75
2022-10-31T14:38:45.614Z,59.93
2022-10-31T14:41:21.104Z,60.30
2022-10-31T14:44:05.987Z,59.23
2022-10-31T14:46:50.750Z,58.89
2022-10-31T14:49:45.006Z,59.20
2022-10-31T14:52:15.265Z,59.39
2022-10-31T14:55:02.175Z,59.66
2022-10-31T14:57:36.533Z,59.92
2022-10-31T15:00:08.180Z,61.40
2022-10-31T15:02:49.978Z,60.29
2022-10-31T15:05:17.416Z,60.55
2022-10-31T15:07:55.136Z,60.43
2022-10-31T15:10:30.962Z,60.77
2022-10-31T15:13:08.928Z,60.90
2022-10-31T15:15:36.159Z,61.56
2022-10-31T15:18:05.621Z,61.38
2022-10-31T15:20:44.022Z,62.12
2022-10-31T15:23:16.117Z,61.73
2022-10-31T15:25:42.642Z,61.95
2022-10-31T15:28:17.647Z,62.46
2022-10-31T15:30:52.472Z,62.48
2022-10-31T15:33:25.245Z,62.38
2022-10-31T15:35:57.121Z,63.20
2022-10-31T15:38:24.606Z,63.61
2022-10-31T15:40:57.623Z,63.87
2022-10-31T15:43:24.299Z,64.66
2022-10-31T15:45:51.021Z,66.40
2022-10-31T15:48:27.515Z,67.98
2022-10-31T15:50:58.543Z,68.23
2022-10-31T15:53:26.494Z,69.74
2022-10-31T15:55:58.658Z,70.30
2022-10-31T15:58:26.225Z,70.90
2022-10-31T16:01:01.502Z,71.17
2022-10-31T16:03:30.643Z,71.24
2022-10-31T16:06:06.442Z,70.51
2022-10-31T16:08:35.813Z,70.18
2022-10-31T16:11:08.132Z,71.42
2022-10-31T16:13:38.275Z,73.08
2022-10-31T16:19:02.042Z,74.39
2022-10-31T16:21:35.730Z,75.20
2022-10-31T16:24:06.629Z,75.10
2022-10-31T16:26:33.979Z,75.26
2022-10-31T16:29:05.696Z,76.27
2022-10-31T16:31:40.610Z,76.39
2022-10-31T16:34:26.280Z,76.89
2022-10-31T16:36:52.904Z,77.29
2022-10-31T16:39:19.362Z,77.27
2022-10-31T16:41:48.403Z,78.15
2022-10-31T16:44:25.102Z,78.93
2022-10-31T16:47:16.079Z,79.88
2022-10-31T16:49:43.967Z,79.68
2022-10-31T16:52:10.642Z,79.79
2022-10-31T16:54:37.091Z,80.84
2022-10-31T16:57:05.256Z,81.19
2022-10-31T16:59:34.292Z,80.69
2022-10-31T17:02:01.837Z,81.20
2022-10-31T17:04:29.328Z,81.76
2022-10-31T17:06:55.742Z,82.28
2022-10-31T17:09:22.192Z,82.94
2022-10-31T17:11:51.434Z,84.37
2022-10-31T17:14:19.519Z,84.10
2022-10-31T17:16:46.002Z,85.25
2022-10-31T17:19:12.597Z,85.76
2022-10-31T17:21:40.460Z,85.10
2022-10-31T17:24:07.527Z,84.75
2022-10-31T17:26:33.970Z,87.15
2022-10-31T17:29:01.958Z,87.32
2022-10-31T17:31:30.625Z,86.95
2022-10-31T17:34:02.036Z,87.52
2022-10-31T17:36:30.317Z,88.17
2022-10-31T17:38:56.778Z,88.42
2022-10-31T17:41:23.381Z,88.13
2022-10-31T17:43:54.273Z,88.46
2022-10-31T17:46:20.657Z,88.07
2022-10-31T17:48:47.077Z,88.21
2022-10-31T17:51:13.492Z,89.58
2022-10-31T17:53:39.990Z,88.84
2022-10-31T17:56:08.406Z,87.75
2022-10-31T17:58:36.767Z,88.99
2022-10-31T18:01:11.764Z,89.65
2022-10-31T18:03:39.019Z,88.68
2022-10-31T18:06:06.531Z,88.64
2022-10-31T18:08:39.814Z,89.10
2022-10-31T18:11:13.293Z,88.60
2022-10-31T18:13:39.806Z,87.96
2022-10-31T18:16:15.086Z,89.00
2022-10-31T18:18:42.436Z,88.31
2022-10-31T18:21:08.912Z,87.45
2022-10-31T18:23:35.370Z,88.27
2022-10-31T18:26:01.894Z,88.14
2022-10-31T18:28:28.435Z,88.67
2022-10-31T18:30:54.906Z,88.91
2022-10-31T18:33:21.463Z,89.74
2022-10-31T18:35:47.904Z,88.94
2022-10-31T18:38:14.490Z,89.11
2022-10-31T18:40:41.099Z,89.38
2022-10-31T18:43:07.592Z,89.57
2022-10-31T18:45:46.348Z,89.52
2022-10-31T18:48:14.740Z,90.27
2022-10-31T18:50:41.904Z,89.98
2022-10-31T18:53:08.514Z,90.01
2022-10-31T18:55:39.910Z,90.69
2022-10-31T18:58:07.751Z,90.56
2022-10-31T19:00:34.168Z,90.78
2022-10-31T19:03:01.476Z,91.25
2022-10-31T19:05:28.155Z,91.30
2022-10-31T19:07:54.546Z,91.45
2022-10-31T19:10:20.992Z,91.74
2022-10-31T19:12:47.383Z,91.82
2022-10-31T19:15:13.807Z,93.08
2022-10-31T19:17:40.198Z,92.49
2022-10-31T19:20:07.358Z,92.27
2022-10-31T19:22:33.915Z,92.36
2022-10-31T19:25:00.601Z,92.58
2022-10-31T19:27:28.123Z,92.26
2022-10-31T19:29:54.583Z,93.71
2022-10-31T19:32:21.156Z,93.79
2022-10-31T19:34:47.568Z,93.83
2022-10-31T19:37:14.046Z,93.05
2022-10-31T19:39:44.182Z,93.39
2022-10-31T19:42:11.878Z,93.35
2022-10-31T19:44:38.286Z,93.45
2022-10-31T19:47:04.867Z,93.03
2022-10-31T19:49:31.378Z,94.08
2022-10-31T19:51:58.146Z,93.99
2022-10-31T19:54:24.566Z,93.99
2022-10-31T19:56:50.978Z,94.13
2022-10-31T19:59:17.363Z,94.94
2022-10-31T20:01:44.008Z,95.98
2022-10-31T20:04:10.586Z,95.85
2022-10-31T20:06:39.558Z,95.85
2022-10-31T20:09:08.701Z,96.09
2022-10-31T20:11:36.973Z,96.62
2022-10-31T20:14:04.199Z,96.42
2022-10-31T20:16:30.658Z,96.31
2022-10-31T20:18:59.435Z,96.51
2022-10-31T20:21:29.714Z,96.91
2022-10-31T20:23:57.954Z,96.56
2022-10-31T20:26:25.114Z,96.60
2022-10-31T20:28:51.857Z,96.33
2022-10-31T20:31:21.709Z,96.98
2022-10-31T20:33:49.489Z,96.85
2022-10-31T20:36:21.084Z,97.11
2022-10-31T20:38:47.830Z,96.73
2022-10-31T20:41:15.346Z,96.68
2022-10-31T20:43:42.131Z,96.19
2022-10-31T20:46:12.154Z,95.76
2022-10-31T20:48:38.762Z,95.90
2022-10-31T20:51:08.016Z,95.74
2022-10-31T20:53:34.624Z,95.57
2022-10-31T20:56:08.423Z,95.88
2022-10-31T20:58:39.178Z,96.01
2022-10-31T21:01:10.797Z,96.07
2022-10-31T21:03:37.330Z,97.14
2022-10-31T21:06:04.599Z,97.42
2022-10-31T21:08:32.600Z,97.66
2022-10-31T21:11:00.332Z,97.77
2022-10-31T21:13:28.436Z,96.97
2022-10-31T21:16:07.370Z,97.37
2022-10-31T21:18:38.277Z,97.74
2022-10-31T21:21:12.486Z,98.37
2022-10-31T21:23:39.100Z,97.81
2022-10-31T21:26:12.893Z,98.23
2022-10-31T21:28:39.611Z,97.66
2022-10-31T21:31:10.934Z,98.50
2022-10-31T21:33:37.955Z,97.73
2022-10-31T21:36:05.270Z,97.58
2022-10-31T21:38:32.058Z,97.65
2022-10-31T21:41:03.642Z,98.28
2022-10-31T21:43:30.662Z,97.32
2022-10-31T21:46:05.840Z,97.18
2022-10-31T21:48:33.090Z,97.67
2022-10-31T21:51:06.165Z,97.45
2022-10-31T21:53:51.234Z,97.82
2022-10-31T21:56:17.677Z,97.84
2022-10-31T21:58:44.082Z,97.19
2022-10-31T22:01:10.598Z,97.47
2022-10-31T22:03:38.350Z,97.46
2022-10-31T22:06:06.548Z,97.66
2022-10-31T22:08:33.401Z,97.00
2022-10-31T22:11:10.650Z,97.14
2022-10-31T22:13:37.583Z,97.31
2022-10-31T22:16:07.459Z,96.96
2022-10-31T22:18:34.884Z,98.01
2022-10-31T22:21:09.215Z,97.58
2022-10-31T22:23:36.463Z,97.86
2022-10-31T22:26:08.440Z,97.50
2022-10-31T22:28:35.667Z,97.31
2022-10-31T22:31:06.212Z,97.77
2022-10-31T22:33:33.382Z,97.40
2022-10-31T22:36:03.094Z,97.56
2022-10-31T22:38:39.973Z,97.61
2022-10-31T22:41:11.562Z,97.52
2022-10-31T22:43:38.690Z,97.44
2022-10-31T22:46:06.631Z,97.51
2022-10-31T22:48:40.531Z,97.27
2022-10-31T22:51:09.328Z,97.67
2022-10-31T22:53:37.640Z,97.73
2022-10-31T22:56:05.664Z,97.88
2022-10-31T22:58:33.701Z,98.00
2022-10-31T23:01:00.814Z,98.41
2022-10-31T23:03:27.631Z,98.30
2022-10-31T23:05:58.590Z,98.29
2022-10-31T23:08:25.895Z,98.20
2022-10-31T23:10:52.546Z,98.55
2022-10-31T23:13:38.686Z,98.34
2022-10-31T23:16:06.705Z,98.26
2022-10-31T23:18:49.581Z,98.82
2022-10-31T23:21:32.695Z,98.21
2022-10-31T23:23:59.183Z,99.06
2022-10-31T23:26:44.528Z,98.25
2022-10-31T23:29:11.013Z,97.88
2022-10-31T23:31:37.454Z,97.90
2022-10-31T23:34:03.854Z,97.82
2022-10-31T23:36:30.258Z,97.86
2022-10-31T23:38:56.666Z,98.03
2022-10-31T23:41:23.664Z,97.81
2022-10-31T23:43:50.080Z,98.06
2022-10-31T23:46:16.551Z,97.62
2022-10-31T23:48:43.031Z,97.34
2022-10-31T23:51:09.435Z,98.11
2022-10-31T23:56:02.238Z,97.95
2022-10-31T23:58:28.623Z,98.59
